Time;durP1;ratioP1;P1;durP2;ratioP2;P2;SDS_P1;SDS_P2;PMS_P1;PMS_P2;Temp;Humidity;BMP_temperature;BMP_pressure;BME280_temperature;BME280_humidity;BME280_pressure;Samples;Min_cycle;Max_cycle;Signal;HPM_P1;HPM_P2
2022/12/04 00:01:29;;;;;;;61.38;41.88;;;3.50;99.90;;;;;;5074888;28;20234;-78
2022/12/04 00:03:57;;;;;;;71.32;40.92;;;3.50;99.90;;;;;;5085138;28;20215;-77
2022/12/04 00:06:25;;;;;;;63.78;39.88;;;3.50;99.90;;;;;;5081167;28;20222;-78
2022/12/04 00:08:53;;;;;;;69.75;40.70;;;3.50;99.90;;;;;;5060298;28;20239;-77
2022/12/04 00:11:23;;;;;;;68.30;41.40;;;3.60;99.90;;;;;;5095485;28;20249;-75
2022/12/04 00:13:51;;;;;;;70.57;41.20;;;3.60;99.90;;;;;;5083246;28;20259;-76
2022/12/04 00:16:21;;;;;;;75.28;43.17;;;3.60;99.90;;;;;;5071209;28;20250;-75
2022/12/04 00:18:53;;;;;;;72.55;42.47;;;3.60;99.90;;;;;;5083418;28;20277;-75
2022/12/04 00:21:24;;;;;;;69.53;39.03;;;3.70;99.90;;;;;;5078468;28;20223;-76
2022/12/04 00:23:52;;;;;;;69.75;39.63;;;3.70;99.90;;;;;;5079122;28;20727;-75
2022/12/04 00:26:21;;;;;;;68.63;39.78;;;3.70;99.90;;;;;;5078577;28;20220;-78
2022/12/04 00:28:48;;;;;;;71.55;40.72;;;3.60;99.90;;;;;;5072310;28;20626;-75
2022/12/04 00:31:17;;;;;;;67.55;39.53;;;3.60;99.90;;;;;;5083729;28;20281;-77
2022/12/04 00:33:45;;;;;;;69.70;41.60;;;3.60;99.90;;;;;;5080439;28;20219;-78
2022/12/04 00:36:15;;;;;;;70.22;42.35;;;3.70;99.90;;;;;;5086658;28;20681;-75
2022/12/04 00:38:43;;;;;;;65.75;40.47;;;3.60;99.90;;;;;;5072549;28;20639;-75
2022/12/04 00:41:12;;;;;;;69.05;39.33;;;3.60;99.90;;;;;;5066316;28;20239;-78
2022/12/04 00:43:39;;;;;;;67.68;42.60;;;3.50;99.90;;;;;;5084099;28;20220;-76
2022/12/04 00:46:06;;;;;;;68.35;39.42;;;3.50;99.90;;;;;;5086951;28;20728;-76
2022/12/04 00:48:34;;;;;;;79.05;43.42;;;3.60;99.90;;;;;;5084770;28;20234;-75
2022/12/04 00:51:03;;;;;;;64.90;39.83;;;3.50;99.90;;;;;;5080586;28;20310;-78
2022/12/04 00:53:32;;;;;;;68.32;42.33;;;3.50;99.90;;;;;;5108968;28;20215;-78
2022/12/04 00:55:59;;;;;;;74.72;41.60;;;3.50;99.90;;;;;;5096026;28;20312;-78
2022/12/04 00:58:26;;;;;;;70.05;43.45;;;3.50;99.90;;;;;;5083332;28;20273;-77
2022/12/04 01:01:02;;;;;;;73.60;43.97;;;3.50;99.90;;;;;;5082740;28;20307;-78
2022/12/04 01:03:29;;;;;;;73.85;41.53;;;3.50;99.90;;;;;;5085427;28;20219;-78
2022/12/04 01:05:56;;;;;;;64.10;41.28;;;3.60;99.90;;;;;;5089644;28;20247;-78
2022/12/04 01:08:23;;;;;;;71.43;39.42;;;3.60;99.90;;;;;;5092997;28;20349;-78
2022/12/04 01:10:52;;;;;;;67.88;41.65;;;3.60;99.90;;;;;;5092488;28;20664;-78
2022/12/04 01:13:19;;;;;;;70.75;40.05;;;3.70;99.90;;;;;;5093029;28;20662;-78
2022/12/04 01:15:48;;;;;;;69.03;41.22;;;3.70;99.90;;;;;;5093184;28;20292;-77
2022/12/04 01:18:17;;;;;;;69.05;43.00;;;3.60;99.90;;;;;;5083771;28;20224;-78
2022/12/04 01:20:48;;;;;;;74.28;42.50;;;3.60;99.90;;;;;;5086817;28;20238;-77
2022/12/04 01:23:14;;;;;;;67.22;42.78;;;3.60;99.90;;;;;;5095779;28;20676;-77
2022/12/04 01:25:52;;;;;;;73.13;44.03;;;3.60;99.90;;;;;;5092575;28;20223;-77
2022/12/04 01:28:19;;;;;;;68.05;43.20;;;3.60;99.90;;;;;;5093574;28;20302;-77
2022/12/04 01:30:55;;;;;;;80.45;45.17;;;3.60;99.90;;;;;;5082208;28;20304;-77
2022/12/04 01:33:22;;;;;;;75.50;44.88;;;3.50;99.90;;;;;;5095541;28;20680;-77
2022/12/04 01:35:53;;;;;;;81.47;44.55;;;3.60;99.90;;;;;;5094315;28;20231;-77
2022/12/04 01:38:20;;;;;;;83.82;44.55;;;3.60;99.90;;;;;;5082121;28;20230;-78
2022/12/04 01:40:47;;;;;;;77.15;48.17;;;3.60;99.90;;;;;;5090425;28;20232;-78
2022/12/04 01:43:16;;;;;;;83.80;44.03;;;3.50;99.90;;;;;;5081974;28;20228;-78
2022/12/04 01:45:45;;;;;;;71.97;43.45;;;3.50;99.90;;;;;;5079525;28;20243;-78
2022/12/04 01:48:19;;;;;;;76.32;44.60;;;3.50;99.90;;;;;;5103603;28;20234;-77
2022/12/04 01:50:49;;;;;;;79.30;44.72;;;3.50;99.90;;;;;;5102605;28;20232;-78
2022/12/04 01:53:16;;;;;;;76.70;43.65;;;3.50;99.90;;;;;;5089667;28;20784;-77
2022/12/04 01:55:45;;;;;;;76.03;44.05;;;3.50;99.90;;;;;;5086945;28;20271;-78
2022/12/04 01:58:12;;;;;;;75.93;43.80;;;3.50;99.90;;;;;;5082217;28;20630;-77
2022/12/04 02:00:43;;;;;;;83.38;45.00;;;3.60;99.90;;;;;;5083102;28;20237;-78
2022/12/04 02:03:13;;;;;;;79.82;43.88;;;3.60;99.90;;;;;;5094570;28;20223;-77
2022/12/04 02:05:42;;;;;;;80.55;44.75;;;3.50;99.90;;;;;;5094345;28;20989;-77
2022/12/04 02:08:09;;;;;;;73.93;44.22;;;3.50;99.90;;;;;;5081998;28;20302;-75
2022/12/04 02:10:50;;;;;;;77.47;47.08;;;3.50;99.90;;;;;;5093887;28;20234;-76
2022/12/04 02:13:25;;;;;;;86.63;47.85;;;3.50;99.90;;;;;;5083166;28;20231;-77
2022/12/04 02:15:58;;;;;;;78.88;41.88;;;3.50;99.90;;;;;;5081641;28;20297;-75
2022/12/04 02:18:36;;;;;;;79.57;43.10;;;3.60;99.90;;;;;;5085081;28;20247;-75
2022/12/04 02:21:10;;;;;;;81.60;45.28;;;3.60;99.90;;;;;;5092839;28;20280;-75
2022/12/04 02:24:13;;;;;;;84.95;46.45;;;3.50;99.90;;;;;;5083022;28;20230;-75
2022/12/04 02:26:50;;;;;;;79.13;45.28;;;3.50;99.90;;;;;;5060863;28;20699;-77
2022/12/04 02:29:27;;;;;;;80.32;44.92;;;3.50;99.90;;;;;;5079864;28;20227;-75
2022/12/04 02:31:59;;;;;;;86.85;46.75;;;3.40;99.90;;;;;;5090755;28;20219;-78
2022/12/04 02:34:29;;;;;;;86.60;48.13;;;3.40;99.90;;;;;;5089416;28;20279;-78
2022/12/04 02:37:02;;;;;;;92.05;50.83;;;3.40;99.90;;;;;;5084661;28;20619;-77
2022/12/04 02:39:36;;;;;;;84.40;46.78;;;3.40;99.90;;;;;;5082816;28;20614;-77
2022/12/04 02:42:13;;;;;;;76.57;46.70;;;3.40;99.90;;;;;;5088829;28;20223;-78
2022/12/04 02:44:45;;;;;;;77.50;47.30;;;3.50;99.90;;;;;;5083736;28;20564;-78
2022/12/04 02:47:23;;;;;;;84.20;46.67;;;3.50;99.90;;;;;;5080688;28;20258;-76
2022/12/04 02:49:54;;;;;;;91.93;48.28;;;3.50;99.90;;;;;;5086123;28;20567;-77
2022/12/04 02:52:26;;;;;;;81.80;45.90;;;3.50;99.90;;;;;;5081759;28;20220;-78
2022/12/04 02:54:57;;;;;;;81.03;46.92;;;3.60;99.90;;;;;;5091904;28;20231;-78
2022/12/04 02:57:29;;;;;;;83.00;47.80;;;3.60;99.90;;;;;;5083332;28;20549;-78
2022/12/04 03:00:00;;;;;;;84.75;46.80;;;3.60;99.90;;;;;;5079968;28;20251;-78
2022/12/04 03:02:33;;;;;;;85.72;46.55;;;3.60;99.90;;;;;;5081915;28;20303;-78
2022/12/04 03:05:03;;;;;;;89.72;46.47;;;3.60;99.90;;;;;;5086821;28;20235;-78
2022/12/04 03:07:38;;;;;;;79.90;46.22;;;3.60;99.90;;;;;;5086237;28;20247;-78
2022/12/04 03:10:12;;;;;;;78.50;44.50;;;3.60;99.90;;;;;;5088004;28;20246;-77
2022/12/04 03:12:43;;;;;;;83.78;47.08;;;3.60;99.90;;;;;;5091610;28;20243;-78
2022/12/04 03:15:20;;;;;;;78.47;43.30;;;3.60;99.90;;;;;;5081531;28;20314;-76
2022/12/04 03:17:53;;;;;;;83.93;46.08;;;3.60;99.90;;;;;;5080227;28;20260;-76
2022/12/04 03:20:23;;;;;;;94.47;48.70;;;3.60;99.90;;;;;;5082243;28;20297;-76
2022/12/04 03:22:59;;;;;;;78.38;44.03;;;3.60;99.90;;;;;;5086725;28;20654;-76
2022/12/04 03:25:34;;;;;;;79.47;45.85;;;3.60;99.90;;;;;;5085813;28;20219;-76
2022/12/04 03:28:06;;;;;;;89.03;45.22;;;3.50;99.90;;;;;;5096237;28;20301;-76
2022/12/04 03:30:40;;;;;;;80.05;42.90;;;3.50;99.90;;;;;;5086685;28;20236;-77
2022/12/04 03:33:11;;;;;;;84.40;46.17;;;3.50;99.90;;;;;;5093090;28;20565;-76
2022/12/04 03:35:42;;;;;;;76.18;42.92;;;3.50;99.90;;;;;;5092735;28;20386;-76
2022/12/04 03:38:16;;;;;;;83.75;44.53;;;3.50;99.90;;;;;;5075091;28;20630;-76
2022/12/04 03:40:48;;;;;;;80.38;47.20;;;3.50;99.90;;;;;;5093899;28;20254;-76
2022/12/04 03:43:20;;;;;;;91.05;43.45;;;3.50;99.90;;;;;;5113560;28;20223;-78
2022/12/04 03:45:55;;;;;;;77.55;44.45;;;3.50;99.90;;;;;;5109221;28;20231;-76
2022/12/04 03:48:25;;;;;;;76.53;42.67;;;3.50;99.90;;;;;;5104987;28;20359;-78
2022/12/04 03:50:57;;;;;;;75.85;43.58;;;3.50;99.90;;;;;;5099668;28;20218;-76
2022/12/04 03:53:35;;;;;;;85.88;44.92;;;3.60;99.90;;;;;;5099180;28;20285;-76
2022/12/04 03:56:11;;;;;;;75.93;44.60;;;3.60;99.90;;;;;;5105346;28;20231;-78
2022/12/04 03:58:44;;;;;;;77.47;42.42;;;3.60;99.90;;;;;;5106539;28;20253;-78
2022/12/04 04:01:15;;;;;;;87.47;45.03;;;3.60;99.90;;;;;;5103334;28;20219;-76
2022/12/04 04:03:46;;;;;;;77.50;42.38;;;3.60;99.90;;;;;;5098947;28;20287;-76
2022/12/04 04:06:18;;;;;;;90.85;45.08;;;3.70;99.90;;;;;;5101217;28;20257;-76
2022/12/04 04:08:49;;;;;;;74.07;43.15;;;3.60;99.90;;;;;;5089429;28;20373;-76
2022/12/04 04:11:27;;;;;;;88.88;46.60;;;3.60;99.90;;;;;;5094421;28;20636;-76
2022/12/04 04:25:29;;;;;;;78.75;43.90;;;3.70;99.90;;;;;;5049695;28;20231;-75
2022/12/04 04:27:58;;;;;;;85.78;45.75;;;3.60;99.90;;;;;;5071830;28;20212;-77
2022/12/04 04:30:26;;;;;;;73.85;44.47;;;3.70;99.90;;;;;;5092102;28;20545;-75
2022/12/04 04:33:01;;;;;;;80.18;44.25;;;3.70;99.90;;;;;;5083650;28;20230;-75
2022/12/04 04:35:35;;;;;;;68.40;39.95;;;3.70;99.90;;;;;;5088536;28;20291;-75
2022/12/04 04:38:14;;;;;;;82.35;43.45;;;3.70;99.90;;;;;;5091098;28;20311;-75
2022/12/04 04:40:48;;;;;;;80.90;44.42;;;3.70;99.90;;;;;;5091671;28;20243;-75
2022/12/04 04:43:23;;;;;;;72.03;42.58;;;3.70;99.90;;;;;;5078821;28;20244;-74
2022/12/04 04:45:55;;;;;;;71.95;40.70;;;3.60;99.90;;;;;;5078609;28;20291;-77
2022/12/04 04:48:27;;;;;;;69.10;42.63;;;3.70;99.90;;;;;;5081012;28;20522;-77
2022/12/04 04:50:55;;;;;;;67.05;40.58;;;3.60;99.90;;;;;;5091942;28;20302;-75
2022/12/04 04:53:27;;;;;;;81.93;45.28;;;3.70;99.90;;;;;;5092445;28;20618;-74
2022/12/04 04:55:54;;;;;;;76.53;41.05;;;3.60;99.90;;;;;;5091896;28;20226;-75
2022/12/04 04:58:21;;;;;;;73.90;42.20;;;3.60;99.90;;;;;;5096511;28;20686;-75
2022/12/04 05:00:57;;;;;;;66.82;40.50;;;3.60;99.90;;;;;;5093905;28;20310;-75
2022/12/04 05:03:25;;;;;;;75.80;40.05;;;3.60;99.90;;;;;;5078538;28;20280;-75
2022/12/04 05:05:52;;;;;;;76.28;40.72;;;3.60;99.90;;;;;;5073481;28;20220;-74
2022/12/04 05:08:19;;;;;;;74.97;43.38;;;3.60;99.90;;;;;;5086524;28;20281;-75
2022/12/04 05:10:46;;;;;;;72.32;42.28;;;3.60;99.90;;;;;;5083271;28;20227;-74
2022/12/04 05:13:14;;;;;;;75.68;43.78;;;3.60;99.90;;;;;;5078424;28;20235;-75
2022/12/04 05:15:41;;;;;;;69.20;41.20;;;3.60;99.90;;;;;;5079780;28;20597;-75
2022/12/04 05:18:09;;;;;;;72.75;40.75;;;3.60;99.90;;;;;;5084872;28;20303;-75
2022/12/04 05:20:39;;;;;;;69.28;40.50;;;3.60;99.90;;;;;;5084485;28;20310;-75
2022/12/04 05:23:06;;;;;;;76.60;42.60;;;3.60;99.90;;;;;;5090016;28;20215;-74
2022/12/04 05:25:33;;;;;;;79.68;43.05;;;3.60;99.90;;;;;;5091595;28;20257;-75
2022/12/04 05:28:00;;;;;;;67.70;42.38;;;3.60;99.90;;;;;;5090342;28;20637;-77
2022/12/04 05:30:27;;;;;;;71.90;40.38;;;3.60;99.90;;;;;;5091796;28;20238;-77
2022/12/04 05:32:54;;;;;;;75.28;43.00;;;3.70;99.90;;;;;;5092074;28;20272;-77
2022/12/04 05:35:21;;;;;;;73.65;40.65;;;3.70;99.90;;;;;;5092872;28;20237;-75
2022/12/04 05:37:50;;;;;;;73.35;40.35;;;3.70;99.90;;;;;;5095969;28;20741;-74
2022/12/04 05:40:17;;;;;;;77.47;42.40;;;3.70;99.90;;;;;;5101195;28;20299;-77
2022/12/04 05:42:44;;;;;;;79.80;45.90;;;3.70;99.90;;;;;;5118412;28;20219;-75
2022/12/04 05:45:11;;;;;;;68.93;40.72;;;3.80;99.90;;;;;;5108822;28;20325;-77
2022/12/04 05:47:39;;;;;;;74.22;42.95;;;3.80;99.90;;;;;;5119823;28;20252;-75
2022/12/04 05:50:07;;;;;;;75.45;41.70;;;3.80;99.90;;;;;;5118196;28;20322;-76
2022/12/04 05:52:36;;;;;;;75.10;40.97;;;3.80;99.90;;;;;;5118072;28;20296;-77
2022/12/04 05:55:05;;;;;;;75.70;44.13;;;3.80;99.90;;;;;;5116459;28;20314;-75
2022/12/04 05:57:36;;;;;;;71.82;39.78;;;3.70;99.90;;;;;;5118563;28;20229;-77
2022/12/04 06:00:05;;;;;;;67.72;40.72;;;3.80;99.90;;;;;;5119427;28;20246;-75
2022/12/04 06:02:34;;;;;;;68.95;40.65;;;3.70;99.90;;;;;;5117841;28;20265;-74
2022/12/04 06:05:01;;;;;;;76.15;42.17;;;3.80;99.90;;;;;;5117314;28;20233;-75
2022/12/04 06:07:28;;;;;;;65.60;40.13;;;3.80;99.90;;;;;;5120430;28;20246;-76
2022/12/04 06:09:55;;;;;;;75.47;42.55;;;3.80;99.90;;;;;;5128460;28;20226;-77
2022/12/04 06:12:24;;;;;;;68.95;39.70;;;3.90;99.90;;;;;;5127058;28;20282;-74
2022/12/04 06:14:54;;;;;;;73.50;41.28;;;3.80;99.90;;;;;;5117174;28;20226;-76
2022/12/04 06:17:21;;;;;;;66.25;39.67;;;3.80;99.90;;;;;;5117945;28;20240;-75
2022/12/04 06:19:49;;;;;;;74.82;42.40;;;3.80;99.90;;;;;;5118681;28;20231;-76
2022/12/04 06:22:16;;;;;;;70.28;41.20;;;3.80;99.90;;;;;;5119637;28;20231;-77
2022/12/04 06:24:43;;;;;;;74.07;40.08;;;3.80;99.90;;;;;;5122490;28;20249;-77
2022/12/04 06:27:10;;;;;;;61.17;37.67;;;3.80;99.90;;;;;;5130585;28;20279;-77
2022/12/04 06:29:38;;;;;;;67.07;41.42;;;3.80;99.90;;;;;;5127612;28;20235;-77
2022/12/04 06:32:05;;;;;;;73.50;40.60;;;3.80;99.90;;;;;;5124239;28;20231;-75
2022/12/04 06:34:32;;;;;;;74.85;42.83;;;3.80;99.90;;;;;;5121167;28;20668;-75
2022/12/04 06:36:59;;;;;;;75.68;42.60;;;3.90;99.90;;;;;;5118927;28;20226;-75
2022/12/04 06:39:26;;;;;;;69.97;39.05;;;3.90;99.90;;;;;;5122493;28;20218;-75
2022/12/04 06:41:53;;;;;;;75.90;41.67;;;3.90;99.90;;;;;;5103677;28;20239;-76
2022/12/04 06:44:20;;;;;;;70.20;40.42;;;3.80;99.90;;;;;;5099712;28;20220;-76
2022/12/04 06:46:50;;;;;;;69.82;40.75;;;3.80;99.90;;;;;;5098959;28;20258;-76
2022/12/04 06:49:21;;;;;;;71.20;40.72;;;3.90;99.90;;;;;;5097674;28;20231;-75
2022/12/04 06:51:49;;;;;;;62.92;37.90;;;3.90;99.90;;;;;;5096394;28;20238;-78
2022/12/04 06:54:16;;;;;;;66.82;37.78;;;3.90;99.90;;;;;;5096880;28;20306;-76
2022/12/04 06:56:43;;;;;;;72.10;38.08;;;3.90;99.90;;;;;;5097348;28;20242;-78
2022/12/04 06:59:11;;;;;;;74.10;42.20;;;4.00;99.90;;;;;;5094491;28;20226;-76
2022/12/04 07:01:38;;;;;;;71.10;38.78;;;4.00;99.90;;;;;;5096878;28;20705;-79
2022/12/04 07:04:07;;;;;;;68.50;41.67;;;4.10;99.90;;;;;;5095520;28;20757;-78
2022/12/04 07:06:36;;;;;;;60.33;39.78;;;4.10;99.90;;;;;;5096148;28;20284;-78
2022/12/04 07:09:06;;;;;;;62.13;37.25;;;4.10;99.90;;;;;;5094898;28;20247;-79
2022/12/04 07:11:34;;;;;;;66.95;41.22;;;4.10;99.90;;;;;;5094546;28;20222;-78
2022/12/04 07:14:01;;;;;;;66.22;39.42;;;4.20;99.90;;;;;;5094514;28;20254;-79
2022/12/04 07:16:29;;;;;;;72.55;40.35;;;4.20;99.90;;;;;;5094927;28;20235;-78
2022/12/04 07:19:00;;;;;;;70.20;40.85;;;4.20;99.90;;;;;;5095319;28;20326;-78
2022/12/04 07:21:30;;;;;;;69.07;41.40;;;4.20;99.90;;;;;;5094717;28;20288;-78
2022/12/04 07:23:59;;;;;;;75.03;40.17;;;4.20;99.90;;;;;;5095074;28;20224;-78
2022/12/04 07:26:28;;;;;;;69.53;41.17;;;4.20;99.90;;;;;;5095757;28;20219;-78
2022/12/04 07:28:55;;;;;;;70.50;41.15;;;4.20;99.90;;;;;;5095168;28;20243;-79
2022/12/04 07:31:24;;;;;;;65.25;37.88;;;4.10;99.90;;;;;;5094552;28;20357;-78
2022/12/04 07:33:52;;;;;;;65.72;41.10;;;4.20;99.90;;;;;;5095148;28;20253;-78
2022/12/04 07:36:21;;;;;;;57.42;36.85;;;4.20;99.90;;;;;;5094426;28;20356;-78
2022/12/04 07:38:50;;;;;;;59.83;36.08;;;4.20;99.90;;;;;;5095038;28;20235;-76
2022/12/04 07:41:18;;;;;;;62.92;38.20;;;4.30;99.90;;;;;;5093865;28;20664;-76
2022/12/04 07:43:45;;;;;;;66.95;39.90;;;4.30;99.90;;;;;;5094840;28;20253;-76
2022/12/04 07:46:15;;;;;;;61.70;38.65;;;4.30;99.90;;;;;;5093249;28;20230;-75
2022/12/04 07:48:42;;;;;;;65.60;38.05;;;4.30;99.90;;;;;;5094035;28;20232;-75
2022/12/04 07:51:11;;;;;;;55.13;35.30;;;4.30;99.90;;;;;;5091923;28;20243;-77
2022/12/04 07:53:39;;;;;;;61.88;38.72;;;4.30;99.90;;;;;;5093970;28;20234;-77
2022/12/04 07:56:09;;;;;;;72.75;41.42;;;4.30;99.90;;;;;;5085761;28;20348;-77
2022/12/04 07:58:36;;;;;;;68.57;38.25;;;4.40;99.90;;;;;;5093562;28;20215;-78
2022/12/04 08:01:08;;;;;;;66.70;40.80;;;4.40;99.90;;;;;;5094258;28;20219;-77
2022/12/04 08:03:37;;;;;;;65.07;37.92;;;4.30;99.90;;;;;;5096182;28;20215;-77
2022/12/04 08:06:07;;;;;;;71.60;40.53;;;4.30;99.90;;;;;;5095019;28;20238;-77
2022/12/04 08:08:35;;;;;;;62.28;38.25;;;4.30;99.90;;;;;;5092946;28;20226;-77
2022/12/04 08:11:08;;;;;;;62.40;36.65;;;4.30;99.90;;;;;;5093828;28;20249;-78
2022/12/04 08:13:36;;;;;;;64.43;37.88;;;4.30;99.90;;;;;;5093291;28;20219;-75
2022/12/04 08:16:03;;;;;;;67.18;38.42;;;4.40;99.90;;;;;;5093043;28;20276;-75
2022/12/04 08:18:31;;;;;;;71.47;42.55;;;4.40;99.90;;;;;;5092240;28;20245;-75
2022/12/04 08:21:04;;;;;;;76.05;42.35;;;4.40;99.90;;;;;;5092706;28;20697;-75
2022/12/04 08:23:31;;;;;;;63.05;37.58;;;4.40;99.90;;;;;;5092267;28;20242;-77
2022/12/04 08:25:59;;;;;;;63.38;38.50;;;4.30;99.90;;;;;;5093156;28;20227;-77
2022/12/04 08:28:28;;;;;;;68.20;39.80;;;4.30;99.90;;;;;;5092660;28;20230;-77
2022/12/04 08:30:55;;;;;;;75.88;40.42;;;4.30;99.90;;;;;;5093242;28;20284;-77
2022/12/04 08:33:27;;;;;;;76.88;41.92;;;4.20;99.90;;;;;;5092483;28;20239;-77
2022/12/04 08:35:54;;;;;;;68.35;40.15;;;4.20;99.90;;;;;;5093411;28;20395;-78
2022/12/04 08:38:21;;;;;;;69.20;39.75;;;4.20;99.90;;;;;;5092496;28;20227;-78
2022/12/04 08:40:48;;;;;;;59.53;35.90;;;4.20;99.90;;;;;;5092324;28;20223;-78
2022/12/04 08:43:15;;;;;;;61.90;37.53;;;4.20;99.90;;;;;;5092580;28;20215;-78
2022/12/04 08:45:43;;;;;;;58.92;36.35;;;4.20;99.90;;;;;;5092473;28;20219;-79
2022/12/04 08:48:11;;;;;;;64.43;39.80;;;4.30;99.90;;;;;;5092439;28;20227;-76
2022/12/04 08:50:37;;;;;;;76.03;42.22;;;4.20;99.90;;;;;;5092200;28;20254;-76
2022/12/04 08:53:04;;;;;;;66.57;41.45;;;4.20;99.90;;;;;;5092726;28;20243;-76
2022/12/04 08:55:31;;;;;;;67.90;38.88;;;4.20;99.90;;;;;;5092339;28;20238;-76
2022/12/04 08:57:58;;;;;;;66.15;39.67;;;4.30;99.90;;;;;;5092506;28;20249;-76
2022/12/04 09:00:26;;;;;;;70.13;39.80;;;4.30;99.90;;;;;;5092167;28;20230;-76
2022/12/04 09:02:54;;;;;;;64.80;42.05;;;4.30;99.90;;;;;;5093027;28;20289;-79
2022/12/04 09:05:21;;;;;;;64.93;40.22;;;4.40;99.90;;;;;;5092549;28;20224;-78
2022/12/04 09:07:48;;;;;;;68.18;40.70;;;4.30;99.90;;;;;;5092867;28;20311;-78
2022/12/04 09:10:15;;;;;;;71.88;40.08;;;4.30;99.90;;;;;;5093321;28;20223;-78
2022/12/04 09:12:42;;;;;;;61.58;36.45;;;4.30;99.90;;;;;;5096052;28;20229;-78
2022/12/04 09:15:10;;;;;;;59.95;37.40;;;4.30;99.90;;;;;;5094731;28;20299;-77
2022/12/04 09:17:37;;;;;;;71.95;41.20;;;4.20;99.90;;;;;;5095719;28;20280;-78
2022/12/04 09:20:10;;;;;;;69.97;37.60;;;4.20;99.90;;;;;;5096194;28;20285;-75
2022/12/04 09:22:37;;;;;;;67.15;41.30;;;4.30;99.90;;;;;;5096559;28;20230;-78
2022/12/04 09:25:05;;;;;;;68.43;38.88;;;4.30;99.90;;;;;;5096678;28;20234;-78
2022/12/04 09:27:36;;;;;;;67.03;39.35;;;4.30;99.90;;;;;;5096185;28;20243;-76
2022/12/04 09:30:04;;;;;;;64.72;39.80;;;4.30;99.90;;;;;;5096052;28;20223;-75
2022/12/04 09:32:31;;;;;;;62.58;37.42;;;4.30;99.90;;;;;;5095874;28;20270;-75
2022/12/04 09:34:58;;;;;;;68.13;38.75;;;4.30;99.90;;;;;;5096104;28;20250;-75
2022/12/04 09:37:26;;;;;;;73.22;40.17;;;4.30;99.90;;;;;;5095895;28;20231;-75
2022/12/04 09:39:54;;;;;;;61.03;36.53;;;4.40;99.90;;;;;;5097252;28;20242;-76
2022/12/04 09:42:38;;;;;;;69.28;40.72;;;4.40;99.90;;;;;;5116053;28;20229;-77
2022/12/04 09:45:12;;;;;;;62.88;37.25;;;4.40;99.90;;;;;;5095993;28;20223;-77
2022/12/04 09:47:44;;;;;;;65.47;36.53;;;4.40;99.90;;;;;;5096327;28;20250;-77
2022/12/04 09:50:16;;;;;;;79.75;39.38;;;4.40;99.90;;;;;;5094903;28;20262;-77
2022/12/04 09:52:54;;;;;;;67.93;40.38;;;4.40;99.90;;;;;;5096199;28;20603;-77
2022/12/04 09:55:26;;;;;;;74.25;40.63;;;4.40;99.90;;;;;;5096515;28;20257;-78
2022/12/04 09:57:56;;;;;;;64.60;38.25;;;4.40;99.90;;;;;;5115481;28;20295;-78
2022/12/04 10:00:27;;;;;;;67.43;40.67;;;4.30;99.90;;;;;;5115693;28;20243;-78
2022/12/04 10:02:59;;;;;;;71.57;41.17;;;4.30;99.90;;;;;;5116327;28;20226;-77
2022/12/04 10:05:41;;;;;;;63.83;37.05;;;4.30;99.90;;;;;;5114741;28;20268;-78
2022/12/04 10:08:16;;;;;;;60.95;38.13;;;4.30;99.90;;;;;;5115511;28;20256;-76
2022/12/04 10:10:51;;;;;;;64.25;38.58;;;4.30;99.90;;;;;;5096250;28;20245;-75
2022/12/04 10:13:35;;;;;;;91.90;52.20;;;4.30;99.90;;;;;;5115241;28;20272;-78
2022/12/04 10:16:13;;;;;;;96.85;52.88;;;4.30;99.90;;;;;;5095431;28;20219;-77
2022/12/04 10:18:57;;;;;;;78.70;41.30;;;4.30;99.90;;;;;;5094868;28;20230;-78
2022/12/04 10:21:38;;;;;;;71.70;41.10;;;4.40;99.90;;;;;;5101571;27;20215;-80
2022/12/04 10:24:19;;;;;;;72.95;44.28;;;4.30;99.90;;;;;;5085056;28;20616;-76
2022/12/04 10:26:54;;;;;;;73.78;43.53;;;4.30;99.90;;;;;;5074846;28;20308;-78
2022/12/04 10:29:26;;;;;;;57.25;37.80;;;4.30;99.90;;;;;;5091632;28;20227;-76
2022/12/04 10:31:56;;;;;;;68.82;41.67;;;4.30;99.90;;;;;;5086431;28;20235;-79
2022/12/04 10:34:26;;;;;;;64.03;38.30;;;4.30;99.90;;;;;;5094878;28;20255;-76
2022/12/04 10:37:00;;;;;;;74.47;40.10;;;4.30;99.90;;;;;;5101440;28;20252;-77
2022/12/04 10:39:34;;;;;;;64.65;39.40;;;4.40;99.90;;;;;;5094182;28;20235;-79
2022/12/04 10:42:08;;;;;;;65.07;40.20;;;4.40;99.90;;;;;;5095304;28;20231;-78
2022/12/04 10:44:35;;;;;;;75.32;41.55;;;4.40;99.90;;;;;;5094952;28;20303;-78
2022/12/04 10:47:04;;;;;;;71.95;41.53;;;4.50;99.90;;;;;;5095241;28;20230;-78
2022/12/04 10:49:35;;;;;;;72.10;40.97;;;4.50;99.90;;;;;;5091917;28;20243;-76
2022/12/04 10:52:03;;;;;;;69.03;40.97;;;4.50;99.90;;;;;;5094669;28;20818;-76
2022/12/04 10:54:34;;;;;;;71.00;39.60;;;4.50;99.90;;;;;;5093278;28;20219;-75
2022/12/04 10:57:07;;;;;;;68.53;40.60;;;4.60;99.90;;;;;;5089061;28;20259;-78
2022/12/04 10:59:34;;;;;;;66.60;39.33;;;4.70;99.90;;;;;;5081237;28;20230;-78
2022/12/04 11:04:59;;;;;;;70.25;39.83;;;4.70;99.90;;;;;;5084753;28;20212;-78
2022/12/04 11:07:32;;;;;;;71.50;42.17;;;4.70;99.90;;;;;;5075087;28;20246;-79
2022/12/04 11:10:04;;;;;;;67.63;38.90;;;4.70;99.90;;;;;;5071873;28;20235;-76
2022/12/04 11:12:32;;;;;;;73.50;41.13;;;4.80;99.90;;;;;;5064581;28;20227;-77
2022/12/04 11:15:15;;;;;;;71.18;41.50;;;4.80;99.90;;;;;;5073516;28;20224;-75
2022/12/04 11:17:43;;;;;;;76.68;39.80;;;4.80;99.90;;;;;;5073838;28;20755;-79
2022/12/04 11:20:31;;;;;;;63.78;40.00;;;4.70;99.90;;;;;;5072315;28;20357;-79
2022/12/04 11:22:59;;;;;;;67.32;39.95;;;4.70;99.90;;;;;;5074152;28;20259;-76
2022/12/04 11:25:34;;;;;;;62.60;38.17;;;4.70;99.90;;;;;;5063079;28;20300;-78
2022/12/04 11:28:03;;;;;;;60.95;38.15;;;4.70;99.90;;;;;;5081849;28;20219;-79
2022/12/04 11:30:34;;;;;;;59.88;37.33;;;4.60;99.90;;;;;;5089281;28;20228;-77
2022/12/04 11:33:03;;;;;;;58.28;37.70;;;4.70;99.90;;;;;;5078858;28;20223;-78
2022/12/04 11:35:31;;;;;;;64.70;39.00;;;4.70;99.90;;;;;;5086477;28;20223;-79
2022/12/04 11:38:02;;;;;;;66.70;45.55;;;4.70;99.90;;;;;;5094325;28;20223;-75
2022/12/04 11:40:59;;;;;;;62.63;39.67;;;4.70;99.90;;;;;;5082780;28;20675;-80
2022/12/04 11:43:28;;;;;;;61.47;40.60;;;4.70;99.90;;;;;;5079002;28;20565;-76
2022/12/04 11:45:57;;;;;;;64.80;40.22;;;4.70;99.90;;;;;;5094176;28;20303;-77
2022/12/04 11:48:26;;;;;;;61.10;39.70;;;4.70;99.90;;;;;;5093119;28;20250;-77
2022/12/04 11:51:05;;;;;;;65.65;45.75;;;4.80;99.90;;;;;;5093747;28;20227;-77
2022/12/04 11:53:44;;;;;;;59.00;40.45;;;4.70;99.90;;;;;;5093702;28;20219;-77
2022/12/04 11:56:24;;;;;;;58.05;38.17;;;4.70;99.90;;;;;;5096087;28;20245;-79
2022/12/04 11:59:23;;;;;;;60.85;37.28;;;4.70;99.90;;;;;;5095232;28;20374;-79
2022/12/04 12:01:58;;;;;;;67.88;36.80;;;4.70;99.90;;;;;;5097233;28;20219;-79
2022/12/04 12:04:51;;;;;;;58.38;35.70;;;4.80;99.90;;;;;;5106688;28;20237;-79
2022/12/04 12:07:31;;;;;;;64.80;36.55;;;4.80;99.90;;;;;;5103314;28;20211;-79
2022/12/04 12:10:06;;;;;;;61.20;36.13;;;4.80;99.90;;;;;;5106167;28;20223;-79
2022/12/04 12:12:46;;;;;;;62.72;37.17;;;4.80;99.90;;;;;;5107741;28;20244;-78
2022/12/04 12:15:26;;;;;;;60.92;36.10;;;4.80;99.90;;;;;;5106558;28;20219;-74
2022/12/04 12:18:10;;;;;;;55.80;37.17;;;4.80;99.90;;;;;;5098020;28;20233;-75
2022/12/04 12:20:41;;;;;;;62.28;35.55;;;4.80;99.90;;;;;;5083460;28;20223;-74
2022/12/04 12:23:23;;;;;;;68.50;37.65;;;4.80;99.90;;;;;;5078272;28;20223;-77
2022/12/04 12:25:59;;;;;;;74.45;47.85;;;4.80;99.90;;;;;;5085210;28;20215;-77
2022/12/04 12:28:43;;;;;;;62.65;45.92;;;4.70;99.90;;;;;;5099540;28;20239;-74
2022/12/04 12:31:29;;;;;;;55.72;36.45;;;4.80;99.90;;;;;;5103058;28;20243;-77
2022/12/04 12:34:04;;;;;;;57.13;35.63;;;4.80;99.90;;;;;;5096954;28;20219;-74
2022/12/04 12:36:44;;;;;;;58.13;37.67;;;4.80;99.90;;;;;;5095105;28;20230;-76
2022/12/04 12:39:20;;;;;;;57.17;36.17;;;4.80;99.90;;;;;;5093199;28;20231;-76
2022/12/04 12:41:52;;;;;;;65.00;38.95;;;4.80;99.90;;;;;;5109707;28;20245;-75
2022/12/04 12:44:27;;;;;;;61.45;38.75;;;4.80;99.90;;;;;;5115402;28;20287;-78
2022/12/04 12:47:00;;;;;;;60.38;38.60;;;4.80;99.90;;;;;;5118907;28;20258;-78
2022/12/04 12:49:32;;;;;;;62.90;37.40;;;4.80;99.90;;;;;;5118205;28;20294;-77
2022/12/04 12:52:05;;;;;;;61.83;37.55;;;4.80;99.90;;;;;;5119639;28;20287;-75
2022/12/04 12:54:40;;;;;;;63.92;36.53;;;4.80;99.90;;;;;;5117096;28;20516;-78
2022/12/04 12:57:13;;;;;;;65.97;35.25;;;4.80;99.90;;;;;;5117370;28;20226;-75
2022/12/04 12:59:48;;;;;;;58.83;35.03;;;4.80;99.90;;;;;;5096267;28;20234;-75
2022/12/04 13:02:23;;;;;;;64.75;36.60;;;4.90;99.90;;;;;;5095675;28;20656;-75
2022/12/04 13:04:53;;;;;;;67.20;36.67;;;4.90;99.90;;;;;;5097225;28;20279;-78
2022/12/04 13:07:29;;;;;;;57.78;36.33;;;4.90;99.90;;;;;;5099322;28;20211;-75
2022/12/04 13:10:03;;;;;;;62.90;36.25;;;4.80;99.90;;;;;;5101608;28;20769;-75